Time;durP1;ratioP1;P1;durP2;ratioP2;P2;SDS_P1;SDS_P2;PMS_P1;PMS_P2;Temp;Humidity;BMP_temperature;BMP_pressure;BME280_temperature;BME280_humidity;BME280_pressure;Samples;Min_cycle;Max_cycle;Signal;HPM_P1;HPM_P2
2022/02/24 00:02:01;;;;;;;3.53;1.27;;;10.70;99.90;;;;;;5076548;28;21171;-79
2022/02/24 00:04:32;;;;;;;1.50;1.20;;;10.70;99.90;;;;;;5081357;28;20516;-80
2022/02/24 00:07:05;;;;;;;1.40;1.30;;;10.80;99.90;;;;;;5085669;28;20466;-81
2022/02/24 00:09:33;;;;;;;1.50;1.40;;;10.80;99.90;;;;;;5073318;28;21068;-81
2022/02/24 00:12:05;;;;;;;1.13;1.00;;;10.80;99.90;;;;;;5075046;28;20452;-82
2022/02/24 00:14:33;;;;;;;3.90;1.63;;;10.90;99.90;;;;;;5080186;28;20459;-81
2022/02/24 00:17:01;;;;;;;1.97;1.30;;;10.80;99.90;;;;;;5081598;28;20451;-81
2022/02/24 00:19:30;;;;;;;1.97;1.37;;;10.80;99.90;;;;;;5084904;28;20556;-82
2022/02/24 00:21:59;;;;;;;4.37;1.97;;;10.70;99.90;;;;;;5085254;28;20462;-81
2022/02/24 00:24:28;;;;;;;4.00;1.97;;;10.70;99.90;;;;;;5077828;28;20482;-80
2022/02/24 00:26:57;;;;;;;1.83;1.40;;;10.80;99.90;;;;;;5087846;28;20471;-81
2022/02/24 00:29:25;;;;;;;3.87;1.77;;;10.80;99.90;;;;;;5086607;28;20458;-80
2022/02/24 00:31:53;;;;;;;2.40;1.40;;;10.80;99.90;;;;;;5081338;28;20450;-79
2022/02/24 00:34:23;;;;;;;2.53;1.30;;;10.90;99.90;;;;;;5076860;28;20591;-80
2022/02/24 00:36:52;;;;;;;5.70;1.50;;;10.90;99.90;;;;;;5079083;28;20572;-80
2022/02/24 00:39:22;;;;;;;1.70;1.40;;;10.90;99.90;;;;;;5083840;28;20446;-81
2022/02/24 00:41:51;;;;;;;1.30;1.20;;;10.70;99.90;;;;;;5079147;28;20455;-80
2022/02/24 00:44:20;;;;;;;5.53;1.40;;;10.70;99.90;;;;;;5080496;28;20475;-80
2022/02/24 00:46:48;;;;;;;1.30;1.20;;;10.60;99.90;;;;;;5085575;28;21164;-81
2022/02/24 00:49:18;;;;;;;1.03;1.00;;;10.60;99.90;;;;;;5084432;28;20454;-79
2022/02/24 00:51:46;;;;;;;1.70;1.20;;;10.60;99.90;;;;;;5082946;28;20817;-80
2022/02/24 00:54:15;;;;;;;1.30;1.00;;;10.70;99.90;;;;;;5085841;28;20484;-81
2022/02/24 00:56:43;;;;;;;1.93;1.20;;;10.60;99.90;;;;;;5076540;28;20468;-79
2022/02/24 00:59:13;;;;;;;1.53;1.20;;;10.60;99.90;;;;;;5075207;28;20504;-80
2022/02/24 01:01:42;;;;;;;2.07;1.33;;;10.60;99.90;;;;;;5080571;28;20975;-80
2022/02/24 01:04:11;;;;;;;1.20;1.07;;;10.70;99.90;;;;;;5076027;28;20485;-81
2022/02/24 01:06:39;;;;;;;3.20;1.20;;;10.70;99.90;;;;;;5080739;28;20467;-80
2022/02/24 01:09:07;;;;;;;1.70;1.00;;;10.80;99.90;;;;;;5082977;28;20454;-80
2022/02/24 01:11:35;;;;;;;2.00;1.10;;;10.70;99.90;;;;;;5083073;28;20454;-80
2022/02/24 01:14:04;;;;;;;1.70;1.20;;;10.80;99.90;;;;;;5078332;28;20480;-81
2022/02/24 01:16:34;;;;;;;1.47;1.20;;;10.80;99.90;;;;;;5075436;28;20456;-85
2022/02/24 01:19:02;;;;;;;1.73;1.30;;;10.90;99.90;;;;;;5074891;28;20459;-79
2022/02/24 01:21:31;;;;;;;2.30;1.30;;;10.90;99.90;;;;;;5079019;28;20449;-79
2022/02/24 01:23:59;;;;;;;1.30;1.20;;;10.90;99.90;;;;;;5083757;28;20637;-80
2022/02/24 01:26:27;;;;;;;1.90;1.60;;;10.80;99.90;;;;;;5077915;28;20452;-79
2022/02/24 01:28:55;;;;;;;4.17;1.47;;;10.80;99.90;;;;;;5080594;28;20446;-80
2022/02/24 01:31:24;;;;;;;2.03;1.30;;;10.80;99.90;;;;;;5078471;28;20457;-79
2022/02/24 01:33:54;;;;;;;2.40;1.30;;;10.70;99.90;;;;;;5084597;28;20479;-79
2022/02/24 01:36:25;;;;;;;1.87;1.40;;;10.70;99.90;;;;;;5079645;28;20473;-79
2022/02/24 01:38:53;;;;;;;1.90;1.23;;;10.70;99.90;;;;;;5077162;28;20502;-80
2022/02/24 01:41:21;;;;;;;1.90;1.40;;;10.60;99.90;;;;;;5079916;28;20450;-79
2022/02/24 01:43:50;;;;;;;2.90;1.10;;;10.50;99.90;;;;;;5077658;28;20482;-80
2022/02/24 01:46:18;;;;;;;3.07;1.30;;;10.70;99.90;;;;;;5082872;28;20454;-80
2022/02/24 01:48:47;;;;;;;4.80;2.03;;;10.50;99.90;;;;;;5085181;28;20914;-80
2022/02/24 01:51:16;;;;;;;2.90;1.50;;;10.40;99.90;;;;;;5088226;28;21023;-78
2022/02/24 01:53:45;;;;;;;1.77;1.40;;;10.40;99.90;;;;;;5087869;28;20487;-81
2022/02/24 01:56:13;;;;;;;1.93;1.50;;;10.40;99.90;;;;;;5087252;28;20453;-79
2022/02/24 01:58:41;;;;;;;3.20;2.07;;;10.40;99.90;;;;;;5084516;28;20453;-81
2022/02/24 02:01:09;;;;;;;3.23;1.83;;;10.40;99.90;;;;;;5091568;28;20449;-82
2022/02/24 02:03:40;;;;;;;2.53;1.60;;;10.40;99.90;;;;;;5087335;28;20572;-80
2022/02/24 02:06:09;;;;;;;2.50;2.30;;;10.50;99.90;;;;;;5085607;28;20465;-81
2022/02/24 02:08:38;;;;;;;2.07;1.40;;;10.50;99.90;;;;;;5082118;28;20812;-83
2022/02/24 02:11:06;;;;;;;1.40;1.30;;;10.40;99.90;;;;;;5079981;28;20531;-80
2022/02/24 02:13:35;;;;;;;2.70;1.50;;;10.40;99.90;;;;;;5076040;28;21042;-80
2022/02/24 02:16:03;;;;;;;1.77;1.30;;;10.40;99.90;;;;;;5076932;28;20465;-79
2022/02/24 02:18:32;;;;;;;1.97;1.20;;;10.50;99.90;;;;;;5083519;28;20453;-81
2022/02/24 02:21:01;;;;;;;2.10;1.30;;;10.50;99.90;;;;;;5086837;28;20989;-80
2022/02/24 02:23:29;;;;;;;1.70;1.40;;;10.40;99.90;;;;;;5083639;28;20932;-79
2022/02/24 02:25:58;;;;;;;2.43;1.30;;;10.40;99.90;;;;;;5078552;28;21365;-79
2022/02/24 02:28:26;;;;;;;1.63;1.40;;;10.40;99.90;;;;;;5078955;28;20480;-80
2022/02/24 02:30:54;;;;;;;3.13;1.50;;;10.40;99.90;;;;;;5089150;28;20491;-79
2022/02/24 02:33:23;;;;;;;2.20;1.60;;;10.40;99.90;;;;;;5083149;28;20477;-80
2022/02/24 02:35:51;;;;;;;1.60;1.10;;;10.50;99.90;;;;;;5083995;28;20545;-79
2022/02/24 02:38:20;;;;;;;1.70;1.27;;;10.50;99.90;;;;;;5082487;28;20446;-80
2022/02/24 02:40:49;;;;;;;2.53;1.60;;;10.70;99.90;;;;;;5081932;28;20958;-79
2022/02/24 02:43:17;;;;;;;1.73;1.30;;;10.40;99.90;;;;;;5079566;28;20466;-81
2022/02/24 02:45:45;;;;;;;1.60;1.30;;;10.40;99.90;;;;;;5076574;28;20443;-80
2022/02/24 02:48:13;;;;;;;1.47;1.13;;;10.40;99.90;;;;;;5074902;28;20486;-79
2022/02/24 02:50:44;;;;;;;1.30;1.20;;;10.40;99.90;;;;;;5077908;28;20462;-79
2022/02/24 02:53:12;;;;;;;1.73;1.40;;;10.40;99.90;;;;;;5081546;28;20477;-81
2022/02/24 02:55:41;;;;;;;2.50;1.40;;;10.50;99.90;;;;;;5084568;28;20449;-79
2022/02/24 02:58:09;;;;;;;1.73;1.10;;;10.50;99.90;;;;;;5082429;28;20440;-79
2022/02/24 03:00:39;;;;;;;3.23;1.30;;;10.50;99.90;;;;;;5077417;28;20437;-79
2022/02/24 03:03:07;;;;;;;1.50;1.13;;;10.60;99.90;;;;;;5076047;28;20560;-80
2022/02/24 03:05:36;;;;;;;1.20;1.10;;;10.60;99.90;;;;;;5082503;28;20473;-80
2022/02/24 03:08:07;;;;;;;0.90;0.90;;;10.60;99.90;;;;;;5087368;28;20473;-80
2022/02/24 03:10:36;;;;;;;1.30;1.20;;;10.60;99.90;;;;;;5081525;28;20473;-80
2022/02/24 03:13:05;;;;;;;2.73;1.37;;;10.60;99.90;;;;;;5078364;28;20472;-80
2022/02/24 03:15:33;;;;;;;1.23;1.13;;;10.60;99.90;;;;;;5079387;28;20831;-81
2022/02/24 03:18:01;;;;;;;1.20;1.10;;;10.60;99.90;;;;;;5083266;28;20456;-80
2022/02/24 03:20:32;;;;;;;1.30;1.20;;;10.50;99.90;;;;;;5084376;28;20460;-79
2022/02/24 03:23:01;;;;;;;1.30;1.20;;;10.50;99.90;;;;;;5085465;28;20481;-80
2022/02/24 03:25:30;;;;;;;1.83;1.20;;;10.60;99.90;;;;;;5076235;28;20450;-79
2022/02/24 03:27:59;;;;;;;3.50;1.53;;;10.70;99.90;;;;;;5075784;28;20492;-80
2022/02/24 03:30:29;;;;;;;2.07;1.50;;;10.70;99.90;;;;;;5084070;28;20979;-79
2022/02/24 03:32:57;;;;;;;5.60;1.77;;;10.80;99.90;;;;;;5075878;28;20478;-79
2022/02/24 03:35:26;;;;;;;2.33;2.13;;;10.60;99.90;;;;;;5078639;28;20508;-79
2022/02/24 03:37:56;;;;;;;1.53;1.30;;;10.80;99.90;;;;;;5078519;28;20817;-81
2022/02/24 03:40:24;;;;;;;2.40;1.67;;;10.70;99.90;;;;;;5082068;28;20959;-82
2022/02/24 03:42:52;;;;;;;1.70;1.20;;;10.70;99.90;;;;;;5076981;28;20480;-81
2022/02/24 03:45:21;;;;;;;1.53;1.00;;;10.90;99.90;;;;;;5079863;28;20959;-80
2022/02/24 03:47:51;;;;;;;2.03;1.30;;;10.60;99.90;;;;;;5083880;28;21279;-80
2022/02/24 03:50:19;;;;;;;1.33;1.23;;;10.70;99.90;;;;;;5086554;28;20486;-80
2022/02/24 03:52:47;;;;;;;1.20;1.10;;;10.60;99.90;;;;;;5081015;28;20527;-81
2022/02/24 03:55:15;;;;;;;1.30;1.20;;;10.70;99.90;;;;;;5081086;28;20933;-81
2022/02/24 03:57:43;;;;;;;3.53;1.30;;;10.70;99.90;;;;;;5081648;28;20519;-82
2022/02/24 04:00:12;;;;;;;1.33;1.00;;;10.70;99.90;;;;;;5085856;28;20461;-81
2022/02/24 04:02:40;;;;;;;1.87;1.33;;;10.70;99.90;;;;;;5084166;28;21215;-83
2022/02/24 04:05:11;;;;;;;1.40;1.30;;;10.70;99.90;;;;;;5089568;28;20479;-81
2022/02/24 04:07:39;;;;;;;1.30;1.20;;;10.50;99.90;;;;;;5078803;28;20446;-81
2022/02/24 04:10:08;;;;;;;1.50;1.20;;;10.50;99.90;;;;;;5084247;28;20486;-82
2022/02/24 04:12:36;;;;;;;1.33;1.23;;;10.60;99.90;;;;;;5084028;28;20485;-82
2022/02/24 04:15:07;;;;;;;1.53;1.43;;;10.60;99.90;;;;;;5086761;28;20454;-82
2022/02/24 04:17:35;;;;;;;3.03;1.50;;;10.60;99.90;;;;;;5080259;28;20450;-81
2022/02/24 04:20:04;;;;;;;1.33;1.20;;;10.60;99.90;;;;;;5082671;28;20441;-82
2022/02/24 04:22:33;;;;;;;1.30;1.20;;;10.50;99.90;;;;;;5088079;28;20486;-82
2022/02/24 04:25:01;;;;;;;1.43;1.33;;;10.50;99.90;;;;;;5082554;28;20458;-81
2022/02/24 04:27:30;;;;;;;1.80;1.30;;;10.40;99.90;;;;;;5087282;28;20450;-80
2022/02/24 04:29:58;;;;;;;1.77;1.13;;;10.50;99.90;;;;;;5074820;28;20491;-79
2022/02/24 04:32:26;;;;;;;2.80;1.60;;;10.50;99.90;;;;;;5073249;28;20454;-79
2022/02/24 04:34:55;;;;;;;1.10;1.00;;;10.50;99.90;;;;;;5081622;28;20458;-81
2022/02/24 04:37:23;;;;;;;1.47;1.37;;;10.60;99.90;;;;;;5078823;28;20476;-81
2022/02/24 04:39:52;;;;;;;1.53;1.30;;;10.60;99.90;;;;;;5082516;28;20446;-81
2022/02/24 04:42:21;;;;;;;1.47;1.23;;;10.60;99.90;;;;;;5080831;28;20462;-83
2022/02/24 04:44:49;;;;;;;1.20;1.10;;;10.60;99.90;;;;;;5081655;28;20466;-80
2022/02/24 04:47:18;;;;;;;2.10;1.30;;;10.60;99.90;;;;;;5084285;28;20449;-83
2022/02/24 04:49:46;;;;;;;2.20;1.47;;;10.60;99.90;;;;;;5085043;28;20429;-81
2022/02/24 04:52:16;;;;;;;2.33;1.30;;;10.50;99.90;;;;;;5080468;28;20454;-81
2022/02/24 04:54:44;;;;;;;2.30;1.40;;;10.50;99.90;;;;;;5076565;28;20476;-80
2022/02/24 04:57:15;;;;;;;2.33;1.37;;;10.50;99.90;;;;;;5082280;28;20554;-82
2022/02/24 04:59:43;;;;;;;1.40;1.20;;;10.50;99.90;;;;;;5083433;28;20544;-80
2022/02/24 05:02:11;;;;;;;1.53;1.43;;;10.50;99.90;;;;;;5082710;28;20557;-82
2022/02/24 05:04:39;;;;;;;3.00;1.70;;;10.50;99.90;;;;;;5078607;28;20464;-81
2022/02/24 05:07:08;;;;;;;5.00;2.13;;;10.50;99.90;;;;;;5077519;28;21345;-80
2022/02/24 05:09:36;;;;;;;3.63;1.77;;;10.40;99.90;;;;;;5076495;28;20520;-79
2022/02/24 05:12:05;;;;;;;1.87;1.40;;;10.40;99.90;;;;;;5078477;28;20793;-81
2022/02/24 05:14:34;;;;;;;1.67;1.50;;;10.30;99.90;;;;;;5079837;28;20510;-81
2022/02/24 05:17:03;;;;;;;1.80;1.60;;;10.40;99.90;;;;;;5072853;28;21416;-80
2022/02/24 05:19:31;;;;;;;1.67;1.50;;;10.40;99.90;;;;;;5072357;28;20940;-80
2022/02/24 05:21:59;;;;;;;1.40;1.30;;;10.40;99.90;;;;;;5086604;28;20448;-83
2022/02/24 05:24:28;;;;;;;1.70;1.20;;;10.40;99.90;;;;;;5080099;28;20479;-82
2022/02/24 05:26:56;;;;;;;4.53;2.00;;;10.30;99.90;;;;;;5077387;28;20444;-79
2022/02/24 05:29:26;;;;;;;1.70;1.60;;;10.30;99.90;;;;;;5072502;28;20490;-79
2022/02/24 05:31:55;;;;;;;2.93;1.67;;;10.30;99.90;;;;;;5077936;28;20454;-77
2022/02/24 05:34:23;;;;;;;2.23;2.03;;;10.40;99.90;;;;;;5075956;28;20480;-79
2022/02/24 05:36:56;;;;;;;2.10;1.40;;;10.40;99.90;;;;;;5082277;28;20454;-78
2022/02/24 05:39:25;;;;;;;4.57;1.60;;;10.40;99.90;;;;;;5072729;28;20445;-78
2022/02/24 05:41:53;;;;;;;2.83;2.10;;;10.40;99.90;;;;;;5076909;28;20460;-78
2022/02/24 05:44:21;;;;;;;3.10;1.50;;;10.30;99.90;;;;;;5082936;28;20524;-78
2022/02/24 05:46:50;;;;;;;2.03;1.50;;;10.30;99.90;;;;;;5081578;28;20863;-77
2022/02/24 05:49:19;;;;;;;2.30;1.57;;;10.30;99.90;;;;;;5078393;28;20531;-78
2022/02/24 05:51:48;;;;;;;2.13;1.70;;;10.50;99.90;;;;;;5069990;28;21307;-77
2022/02/24 05:54:16;;;;;;;2.33;1.70;;;10.30;99.90;;;;;;5077429;28;20493;-78
2022/02/24 05:56:47;;;;;;;2.57;1.93;;;10.30;99.90;;;;;;5077496;28;20451;-77
2022/02/24 05:59:15;;;;;;;2.27;1.60;;;10.20;99.90;;;;;;5078699;28;20453;-78
2022/02/24 06:01:44;;;;;;;4.13;1.93;;;10.20;99.90;;;;;;5078224;28;20454;-79
2022/02/24 06:04:12;;;;;;;2.30;2.00;;;10.10;99.90;;;;;;5079296;28;20475;-77
2022/02/24 06:06:41;;;;;;;4.13;2.33;;;10.00;99.90;;;;;;5081139;28;20451;-77
2022/02/24 06:09:09;;;;;;;2.77;2.07;;;10.00;99.90;;;;;;5079551;28;20448;-77
2022/02/24 06:11:38;;;;;;;2.40;2.10;;;10.10;99.90;;;;;;5080927;28;20464;-77
2022/02/24 06:14:06;;;;;;;3.50;2.70;;;10.10;99.90;;;;;;5078079;28;20478;-77
2022/02/24 06:16:34;;;;;;;2.88;2.65;;;10.00;99.90;;;;;;5068908;28;20900;-76
2022/02/24 06:19:03;;;;;;;3.33;2.47;;;9.90;99.90;;;;;;5078687;28;21057;-77
2022/02/24 06:21:31;;;;;;;8.03;3.67;;;9.80;99.90;;;;;;5082588;28;20945;-77
2022/02/24 06:24:01;;;;;;;3.07;2.60;;;9.80;99.90;;;;;;5071336;28;20481;-76
2022/02/24 06:26:29;;;;;;;3.30;2.40;;;9.80;99.90;;;;;;5074113;28;20446;-79
2022/02/24 06:28:57;;;;;;;2.73;2.47;;;9.80;99.90;;;;;;5073147;28;20456;-77
2022/02/24 06:31:25;;;;;;;4.90;4.40;;;9.70;99.90;;;;;;5073918;28;20480;-77
2022/02/24 06:33:56;;;;;;;4.30;2.70;;;9.80;99.90;;;;;;5072949;28;20467;-77
2022/02/24 06:36:24;;;;;;;4.00;2.60;;;10.10;99.90;;;;;;5080975;28;20496;-77
2022/02/24 06:38:52;;;;;;;3.50;2.37;;;9.80;99.90;;;;;;5086080;28;20477;-78
2022/02/24 06:41:22;;;;;;;4.13;2.90;;;9.80;99.90;;;;;;5088233;28;20455;-77
2022/02/24 06:43:50;;;;;;;4.30;3.13;;;9.80;99.90;;;;;;5088142;28;20480;-77
2022/02/24 06:46:19;;;;;;;3.10;2.60;;;9.90;99.90;;;;;;5083244;28;20553;-77
2022/02/24 06:48:47;;;;;;;4.33;3.20;;;10.00;99.90;;;;;;5087955;28;20457;-78
2022/02/24 06:51:16;;;;;;;2.60;2.30;;;10.10;99.90;;;;;;5089391;28;20496;-78
2022/02/24 06:53:44;;;;;;;2.20;1.70;;;10.20;99.90;;;;;;5079548;28;20483;-77
2022/02/24 06:56:12;;;;;;;3.10;2.13;;;10.20;99.90;;;;;;5090249;28;20456;-77
2022/02/24 06:58:45;;;;;;;5.13;3.10;;;10.40;99.90;;;;;;5086702;28;20495;-77
2022/02/24 07:01:13;;;;;;;2.90;2.47;;;10.20;99.90;;;;;;5087300;28;20453;-77
2022/02/24 07:03:42;;;;;;;3.17;2.70;;;10.20;99.90;;;;;;5083036;28;20480;-78
2022/02/24 07:06:11;;;;;;;3.00;2.43;;;10.60;99.90;;;;;;5082181;28;20446;-77
2022/02/24 07:08:40;;;;;;;3.73;2.67;;;10.40;99.90;;;;;;5088105;28;20453;-76
2022/02/24 07:11:08;;;;;;;4.23;2.87;;;10.40;99.90;;;;;;5088392;28;20484;-75
2022/02/24 07:13:36;;;;;;;5.60;4.00;;;10.40;99.90;;;;;;5089323;28;20678;-77
2022/02/24 07:16:26;;;;;;;5.40;3.40;;;10.50;99.90;;;;;;5078856;28;20507;-77
2022/02/24 07:18:54;;;;;;;3.40;2.70;;;10.40;99.90;;;;;;5073465;28;20620;-77
2022/02/24 07:21:22;;;;;;;3.93;3.63;;;10.50;99.90;;;;;;5078885;28;20458;-78
2022/02/24 07:23:50;;;;;;;3.70;2.60;;;10.40;99.90;;;;;;5077610;28;21024;-78
2022/02/24 07:26:19;;;;;;;2.40;2.03;;;10.50;99.90;;;;;;5078650;28;20476;-77
2022/02/24 07:28:47;;;;;;;3.83;3.25;;;10.50;99.90;;;;;;5072386;28;20483;-77
2022/02/24 07:31:15;;;;;;;4.87;3.80;;;10.40;99.90;;;;;;5077786;28;20224;-77
2022/02/24 07:33:45;;;;;;;5.67;2.97;;;10.50;99.90;;;;;;5078087;28;20479;-77
2022/02/24 07:36:13;;;;;;;4.07;3.00;;;10.50;99.90;;;;;;5073937;28;20988;-77
2022/02/24 07:38:42;;;;;;;4.47;2.80;;;10.70;99.90;;;;;;5073292;28;20558;-77
2022/02/24 07:41:10;;;;;;;9.23;3.37;;;10.50;99.90;;;;;;5080319;28;20458;-77
2022/02/24 07:43:38;;;;;;;3.20;2.47;;;10.60;99.90;;;;;;5074132;28;20478;-77
2022/02/24 07:46:06;;;;;;;4.80;2.63;;;10.50;99.90;;;;;;5074324;28;20507;-77
2022/02/24 07:48:35;;;;;;;4.20;2.10;;;10.50;99.90;;;;;;5077180;28;20540;-78
2022/02/24 07:51:04;;;;;;;3.77;3.33;;;10.50;99.90;;;;;;5074261;28;20478;-77
2022/02/24 07:53:36;;;;;;;4.50;2.40;;;10.60;99.90;;;;;;5077688;28;20476;-76
2022/02/24 07:56:05;;;;;;;2.50;2.20;;;10.60;99.90;;;;;;5073529;28;20450;-77
2022/02/24 07:58:33;;;;;;;2.60;2.40;;;10.50;99.90;;;;;;5077656;28;20476;-77
2022/02/24 08:01:01;;;;;;;4.37;2.90;;;10.70;99.90;;;;;;5073914;28;20832;-76
2022/02/24 08:03:30;;;;;;;3.77;3.03;;;10.80;99.90;;;;;;5073217;28;20478;-77
2022/02/24 08:05:58;;;;;;;3.27;2.70;;;10.90;99.90;;;;;;5076331;28;20479;-77
2022/02/24 08:08:28;;;;;;;8.53;2.90;;;10.80;99.90;;;;;;5071706;28;20521;-77
2022/02/24 08:10:57;;;;;;;4.23;3.20;;;10.80;99.90;;;;;;5076695;28;20473;-77
2022/02/24 08:13:25;;;;;;;3.10;2.67;;;10.90;99.90;;;;;;5072744;28;20497;-77
2022/02/24 08:15:53;;;;;;;3.90;3.20;;;11.10;99.90;;;;;;5075073;28;22441;-77
2022/02/24 08:18:22;;;;;;;5.10;2.33;;;11.10;99.90;;;;;;5072145;28;20466;-78
2022/02/24 08:20:50;;;;;;;3.80;2.80;;;11.20;99.90;;;;;;5079386;28;20896;-77
2022/02/24 08:23:19;;;;;;;4.87;2.63;;;11.20;99.90;;;;;;5074906;28;20465;-77
2022/02/24 08:25:49;;;;;;;4.33;2.77;;;11.30;99.90;;;;;;5078443;28;20463;-77
2022/02/24 08:28:17;;;;;;;2.43;2.30;;;11.40;99.90;;;;;;5074403;28;20446;-77
2022/02/24 08:30:46;;;;;;;4.03;2.33;;;11.50;99.90;;;;;;5070742;28;20502;-77
2022/02/24 08:33:14;;;;;;;2.90;2.30;;;11.60;99.90;;;;;;5077140;28;20879;-77
2022/02/24 08:35:43;;;;;;;2.93;1.90;;;11.50;99.90;;;;;;5074876;28;20454;-77
2022/02/24 08:38:11;;;;;;;2.90;1.97;;;11.70;99.90;;;;;;5074109;28;20469;-76
2022/02/24 08:40:39;;;;;;;2.97;2.53;;;11.80;99.90;;;;;;5074173;28;20447;-76
2022/02/24 08:43:09;;;;;;;3.27;2.20;;;11.80;99.90;;;;;;5072698;28;20483;-75
2022/02/24 08:45:37;;;;;;;3.50;2.37;;;11.80;99.90;;;;;;5071701;28;20461;-77
2022/02/24 08:48:06;;;;;;;3.03;2.10;;;11.70;99.90;;;;;;5073478;28;20550;-78
2022/02/24 08:50:35;;;;;;;1.90;1.70;;;11.80;99.90;;;;;;5072670;28;20472;-77
2022/02/24 08:53:14;;;;;;;3.20;1.77;;;11.80;99.90;;;;;;5075308;28;20473;-77
2022/02/24 08:55:42;;;;;;;2.97;1.77;;;12.00;99.90;;;;;;5075580;28;20506;-78
2022/02/24 08:58:12;;;;;;;3.57;1.80;;;12.00;99.90;;;;;;5070533;28;20457;-76
2022/02/24 09:00:46;;;;;;;2.77;2.07;;;12.10;99.90;;;;;;5076120;28;20472;-77
2022/02/24 09:03:14;;;;;;;1.83;1.70;;;12.20;99.90;;;;;;5077396;28;20478;-77
2022/02/24 09:05:44;;;;;;;2.03;1.83;;;12.20;99.90;;;;;;5072623;28;20468;-77
2022/02/24 09:08:13;;;;;;;2.10;1.90;;;12.40;99.90;;;;;;5071756;28;20453;-77
2022/02/24 09:10:41;;;;;;;2.23;2.00;;;12.40;99.90;;;;;;5072402;28;20444;-77
2022/02/24 09:13:10;;;;;;;2.23;2.07;;;12.60;99.90;;;;;;5073458;28;20476;-77
2022/02/24 09:15:39;;;;;;;1.70;1.60;;;12.70;99.90;;;;;;5076687;28;21083;-77
2022/02/24 09:18:08;;;;;;;2.23;1.57;;;12.80;99.90;;;;;;5073586;28;20461;-75
2022/02/24 09:20:38;;;;;;;3.20;1.57;;;12.80;99.90;;;;;;5074364;28;20599;-78
2022/02/24 09:23:07;;;;;;;1.50;1.33;;;12.70;99.90;;;;;;5073302;28;20595;-79
2022/02/24 09:25:38;;;;;;;2.10;1.70;;;12.70;99.90;;;;;;5076030;28;20867;-77
2022/02/24 09:28:06;;;;;;;2.80;1.57;;;12.60;99.90;;;;;;5074880;28;21002;-78
2022/02/24 09:30:34;;;;;;;3.40;1.70;;;12.40;99.90;;;;;;5074659;28;20444;-77
2022/02/24 09:33:07;;;;;;;2.53;1.30;;;12.40;99.90;;;;;;5074512;28;20570;-78
2022/02/24 09:35:35;;;;;;;2.77;1.50;;;12.30;99.90;;;;;;5073860;28;20453;-77
2022/02/24 09:38:04;;;;;;;4.13;1.80;;;12.30;99.90;;;;;;5071779;28;20511;-78
2022/02/24 09:40:33;;;;;;;4.00;1.63;;;12.30;99.90;;;;;;5075263;28;20455;-79
2022/02/24 09:43:20;;;;;;;2.10;1.57;;;12.40;99.90;;;;;;5070192;28;20483;-77
2022/02/24 09:45:50;;;;;;;2.30;1.50;;;12.40;99.90;;;;;;5073347;28;20759;-77
2022/02/24 09:48:28;;;;;;;2.83;1.33;;;12.40;99.90;;;;;;5073832;28;21009;-78
2022/02/24 09:50:57;;;;;;;1.87;1.50;;;12.30;99.90;;;;;;5079713;28;20455;-76
2022/02/24 09:53:27;;;;;;;2.00;1.20;;;12.20;99.90;;;;;;5072502;28;20486;-78
2022/02/24 09:55:55;;;;;;;1.70;1.37;;;12.20;99.90;;;;;;5073376;28;20449;-77
2022/02/24 09:58:24;;;;;;;2.10;1.33;;;12.30;99.90;;;;;;5075600;28;21028;-77
2022/02/24 10:00:53;;;;;;;2.27;1.13;;;12.50;99.90;;;;;;5072491;28;20453;-78
2022/02/24 10:03:27;;;;;;;3.40;1.57;;;12.70;99.90;;;;;;5072148;28;21091;-77
2022/02/24 10:05:56;;;;;;;2.60;1.40;;;13.10;99.90;;;;;;5077366;28;20529;-77
2022/02/24 10:08:29;;;;;;;1.73;1.63;;;13.10;99.90;;;;;;5074665;28;20442;-78
2022/02/24 10:11:00;;;;;;;4.00;1.47;;;13.30;99.90;;;;;;5075473;28;21108;-78
2022/02/24 10:13:29;;;;;;;1.27;1.17;;;13.50;99.90;;;;;;5097376;28;20490;-78
2022/02/24 10:15:59;;;;;;;1.20;1.10;;;13.60;99.90;;;;;;5081855;28;20542;-79
2022/02/24 10:18:31;;;;;;;1.43;1.27;;;13.70;99.90;;;;;;5077054;28;20500;-77
2022/02/24 10:21:01;;;;;;;3.13;1.27;;;13.90;99.90;;;;;;5077512;28;20453;-80
2022/02/24 10:23:34;;;;;;;2.60;1.20;;;14.10;99.90;;;;;;5076458;28;20505;-78
2022/02/24 10:26:04;;;;;;;1.50;1.10;;;14.30;99.90;;;;;;5073126;28;20468;-79
2022/02/24 10:28:42;;;;;;;1.60;1.30;;;14.30;99.90;;;;;;5080990;28;20503;-78
2022/02/24 10:31:12;;;;;;;1.80;1.20;;;14.30;99.90;;;;;;5078061;28;20450;-78
2022/02/24 10:33:43;;;;;;;1.23;1.00;;;14.40;99.90;;;;;;5075668;28;20489;-78
2022/02/24 10:36:21;;;;;;;2.00;1.20;;;14.60;99.90;;;;;;5080963;28;20464;-78
2022/02/24 10:39:01;;;;;;;1.30;1.10;;;14.80;99.90;;;;;;5075528;28;20474;-77
2022/02/24 10:41:50;;;;;;;2.20;1.00;;;15.10;99.90;;;;;;5079614;28;20512;-78
2022/02/24 10:44:20;;;;;;;1.80;1.00;;;15.00;99.90;;;;;;5072754;28;20533;-78
2022/02/24 10:47:10;;;;;;;1.37;1.20;;;14.90;99.90;;;;;;5072856;28;21044;-77
2022/02/24 10:49:42;;;;;;;1.97;1.20;;;14.80;99.90;;;;;;5078209;28;20583;-78
2022/02/24 10:52:14;;;;;;;1.63;1.20;;;14.80;99.90;;;;;;5077489;28;20496;-77
2022/02/24 10:54:45;;;;;;;2.47;1.20;;;15.00;99.90;;;;;;5079710;28;20529;-78
2022/02/24 10:57:20;;;;;;;1.73;1.00;;;15.20;99.90;;;;;;5076570;28;20529;-78
2022/02/24 10:59:49;;;;;;;1.63;1.13;;;15.50;99.90;;;;;;5077248;28;20455;-78
2022/02/24 11:02:21;;;;;;;2.23;0.90;;;15.00;99.90;;;;;;5079020;28;21022;-77
2022/02/24 11:04:53;;;;;;;1.77;1.10;;;14.90;99.90;;;;;;5076727;28;20874;-78
2022/02/24 11:07:22;;;;;;;1.00;0.80;;;14.60;99.90;;;;;;5079309;28;20460;-77
2022/02/24 11:09:51;;;;;;;1.47;1.00;;;14.80;99.90;;;;;;5076841;28;20460;-77
2022/02/24 11:12:23;;;;;;;0.97;0.77;;;15.00;99.90;;;;;;5076976;28;20488;-78
2022/02/24 11:14:52;;;;;;;4.03;0.80;;;15.00;99.90;;;;;;5076594;28;20433;-78
2022/02/24 11:17:22;;;;;;;0.70;0.70;;;15.20;99.90;;;;;;5077247;28;20493;-77
2022/02/24 11:19:52;;;;;;;0.80;0.80;;;15.40;99.90;;;;;;5074440;28;20472;-79
2022/02/24 11:22:24;;;;;;;1.80;0.80;;;15.60;99.90;;;;;;5078010;28;20447;-78
2022/02/24 11:24:54;;;;;;;1.97;0.80;;;15.60;99.90;;;;;;5075581;28;20449;-78
2022/02/24 11:27:29;;;;;;;1.40;0.83;;;15.80;99.90;;;;;;5079803;28;20451;-78
2022/02/24 11:30:04;;;;;;;2.00;0.80;;;15.80;99.90;;;;;;5078431;28;20492;-78
2022/02/24 11:32:33;;;;;;;0.90;0.90;;;15.80;99.90;;;;;;5079195;28;20849;-78
2022/02/24 11:35:07;;;;;;;0.70;0.60;;;15.70;99.90;;;;;;5075968;28;20526;-78
2022/02/24 11:38:10;;;;;;;0.77;0.63;;;15.80;99.90;;;;;;5075385;28;20515;-78
2022/02/24 11:40:39;;;;;;;1.23;1.23;;;15.90;99.90;;;;;;5075398;28;20453;-78
2022/02/24 11:43:09;;;;;;;1.13;0.70;;;15.90;99.90;;;;;;5074037;28;20475;-79
2022/02/24 11:45:39;;;;;;;0.80;0.80;;;15.60;99.90;;;;;;5075717;28;20458;-79
2022/02/24 11:48:09;;;;;;;2.60;1.00;;;15.50;99.90;;;;;;5075694;28;20461;-78
2022/02/24 11:50:40;;;;;;;1.10;0.90;;;15.70;99.90;;;;;;5073282;28;20521;-78
2022/02/24 11:53:10;;;;;;;4.40;0.97;;;15.30;99.10;;;;;;5078256;28;20491;-76
2022/02/24 11:55:47;;;;;;;1.30;1.00;;;15.10;98.40;;;;;;5074147;28;20904;-79
2022/02/24 11:58:36;;;;;;;1.63;0.70;;;15.30;99.40;;;;;;5079675;28;20826;-78
2022/02/24 12:01:34;;;;;;;1.83;0.83;;;15.30;99.10;;;;;;5073393;28;20457;-80
2022/02/24 12:04:06;;;;;;;1.87;0.93;;;15.40;98.70;;;;;;5077769;28;20501;-78
2022/02/24 12:06:53;;;;;;;1.27;0.80;;;15.40;98.60;;;;;;5075102;28;20469;-79
2022/02/24 12:09:30;;;;;;;0.80;0.80;;;15.20;95.60;;;;;;5074035;28;20481;-78
2022/02/24 12:12:00;;;;;;;2.10;1.10;;;14.90;94.30;;;;;;5075096;28;20456;-78
2022/02/24 12:14:56;;;;;;;1.13;0.77;;;14.80;94.10;;;;;;5077065;28;20484;-79
2022/02/24 12:17:29;;;;;;;3.70;1.00;;;14.90;95.20;;;;;;5075377;28;21209;-78
2022/02/24 12:20:00;;;;;;;3.10;0.90;;;14.70;97.10;;;;;;5076706;28;20471;-79
2022/02/24 12:22:36;;;;;;;1.83;0.83;;;14.70;98.20;;;;;;5071995;28;22707;-78
2022/02/24 12:25:16;;;;;;;1.23;0.70;;;14.70;97.90;;;;;;5070875;28;20460;-78
2022/02/24 12:27:57;;;;;;;1.10;0.87;;;14.70;98.40;;;;;;5071876;28;20462;-77
2022/02/24 12:30:31;;;;;;;3.25;0.70;;;14.80;98.30;;;;;;5071287;28;21015;-79
2022/02/24 12:33:06;;;;;;;0.80;0.63;;;14.80;97.30;;;;;;5072338;28;20229;-79
2022/02/24 12:35:36;;;;;;;3.07;0.73;;;14.70;95.90;;;;;;5078873;28;20454;-78
2022/02/24 12:38:07;;;;;;;1.23;0.80;;;14.60;93.40;;;;;;5076135;28;20443;-78
2022/02/24 12:40:38;;;;;;;0.93;0.73;;;14.50;92.90;;;;;;5071268;28;20453;-78
2022/02/24 12:43:09;;;;;;;1.90;0.80;;;14.60;93.50;;;;;;5073568;28;20481;-78
2022/02/24 12:45:41;;;;;;;2.27;0.73;;;14.60;93.80;;;;;;5069079;28;20470;-79
2022/02/24 12:48:11;;;;;;;1.50;0.70;;;14.60;93.20;;;;;;5072831;28;20468;-78
2022/02/24 12:50:43;;;;;;;1.43;0.87;;;14.50;92.20;;;;;;5078413;28;20536;-78
2022/02/24 12:53:15;;;;;;;1.33;0.80;;;14.60;93.50;;;;;;5074305;28;20573;-78
2022/02/24 12:55:45;;;;;;;2.83;1.00;;;14.60;94.30;;;;;;5078362;28;20465;-78
2022/02/24 12:58:14;;;;;;;1.90;0.70;;;14.60;92.90;;;;;;5073874;28;20452;-80
2022/02/24 13:00:47;;;;;;;1.13;0.80;;;14.60;93.20;;;;;;5073764;28;20466;-81
2022/02/24 13:03:16;;;;;;;3.60;1.77;;;14.70;93.90;;;;;;5077209;28;20564;-81